PWSweather.com
Personal Weather Stations
Station Observations
KMAROCK
Pebble Beach, Rockport, MA 01966

Pebble BeachRockport, MA 01966

Lat: 42.63577271, Lon: -70.597377

Elevation: 20

Station Type: Davis Vantage Pro2

http://weather-rockport.keneli.org

High Low Average
Temperature 39.2°F4.0°C 31.6°F-0.2°C 35.4°F1.9°C
Dew Point 29.7°F-1.3°C 21.3°F-5.9°C 24.9°F-3.9°C
Winds 16.0 mph 25.7 kmh Calm Calm 6.0 mph S9.7 kmh S
Wind Gusts 19.0 mph30.6 kmh 5.0 mph8.0 kmh 10.0 mph16.1 kmh
Humidity 76% 57% 65%
Pressure 30.12 in1020.0 mb 29.92 in1013.2 mb -
Precipitation 0.05 in1.3 mm - -
Hour Temp Dew Point Humidity Winds Wind Gusts Pressure Precip Precip Rate Daily Precip Total
12:00 AM 36.1°F2.3°C 26.5°F-3.1°C 68% 10.0 mph NW16.1 kmh NW 13.0 mph20.9 kmh 29.92 in1013.2 mb 0.00 in0.0 mm 0.00 in/hr0.0 mm/hr 0.05 in1.3 mm
12:05 AM 36.1°F2.3°C 26.2°F-3.2°C 67% 7.0 mph NW11.3 kmh NW 15.0 mph24.1 kmh 29.92 in1013.2 mb 0.00 in0.0 mm 0.00 in/hr0.0 mm/hr 0.00 in0.0 mm
12:10 AM 36.1°F2.3°C 26.2°F-3.2°C 67% 4.0 mph NW6.4 kmh NW 10.0 mph16.1 kmh 29.93 in1013.5 mb 0.00 in0.0 mm 0.00 in/hr0.0 mm/hr 0.00 in0.0 mm
12:15 AM 36.1°F2.3°C 26.2°F-3.2°C 67% 5.0 mph WNW8.0 kmh WNW 10.0 mph16.1 kmh 29.93 in1013.5 mb 0.00 in0.0 mm 0.00 in/hr0.0 mm/hr 0.00 in0.0 mm
12:20 AM 36.0°F2.2°C 26.1°F-3.3°C 67% 6.0 mph NW9.7 kmh NW 11.0 mph17.7 kmh 29.93 in1013.5 mb 0.00 in0.0 mm 0.00 in/hr0.0 mm/hr 0.00 in0.0 mm
12:25 AM 36.0°F2.2°C 26.1°F-3.3°C 67% 4.0 mph NNW6.4 kmh NNW 10.0 mph16.1 kmh 29.93 in1013.5 mb 0.00 in0.0 mm 0.00 in/hr0.0 mm/hr 0.00 in0.0 mm
12:30 AM 36.0°F2.2°C 26.1°F-3.3°C 67% 5.0 mph NW8.0 kmh NW 10.0 mph16.1 kmh 29.93 in1013.5 mb 0.00 in0.0 mm 0.00 in/hr0.0 mm/hr 0.00 in0.0 mm
12:35 AM 35.9°F2.2°C 26.0°F-3.3°C 67% 7.0 mph NW11.3 kmh NW 10.0 mph16.1 kmh 29.93 in1013.5 mb 0.00 in0.0 mm 0.00 in/hr0.0 mm/hr 0.00 in0.0 mm
12:40 AM 35.8°F2.1°C 25.9°F-3.4°C 67% 3.0 mph NW4.8 kmh NW 11.0 mph17.7 kmh 29.93 in1013.5 mb 0.00 in0.0 mm 0.00 in/hr0.0 mm/hr 0.00 in0.0 mm
12:45 AM 35.7°F2.1°C 25.8°F-3.4°C 67% 6.0 mph NW9.7 kmh NW 9.0 mph14.5 kmh 29.94 in1013.9 mb 0.00 in0.0 mm 0.00 in/hr0.0 mm/hr 0.00 in0.0 mm
12:50 AM 35.8°F2.1°C 25.5°F-3.6°C 66% 4.0 mph WNW6.4 kmh WNW 10.0 mph16.1 kmh 29.94 in1013.9 mb 0.00 in0.0 mm 0.00 in/hr0.0 mm/hr 0.00 in0.0 mm
12:55 AM 35.7°F2.1°C 25.4°F-3.7°C 66% 10.0 mph NW16.1 kmh NW 12.0 mph19.3 kmh 29.94 in1013.9 mb 0.00 in0.0 mm 0.00 in/hr0.0 mm/hr 0.00 in0.0 mm
01:00 AM 35.7°F2.1°C 25.4°F-3.7°C 66% 8.0 mph W12.9 kmh W 11.0 mph17.7 kmh 29.94 in1013.9 mb 0.00 in0.0 mm 0.00 in/hr0.0 mm/hr 0.00 in0.0 mm
01:05 AM 35.7°F2.1°C 25.4°F-3.7°C 66% 10.0 mph NW16.1 kmh NW 12.0 mph19.3 kmh 29.94 in1013.9 mb 0.00 in0.0 mm 0.00 in/hr0.0 mm/hr 0.00 in0.0 mm
01:10 AM 35.6°F2.0°C 25.3°F-3.7°C 66% 9.0 mph WNW14.5 kmh WNW 11.0 mph17.7 kmh 29.94 in1013.9 mb 0.00 in0.0 mm 0.00 in/hr0.0 mm/hr 0.00 in0.0 mm
01:15 AM 35.5°F1.9°C 25.2°F-3.8°C 66% 6.0 mph WNW9.7 kmh WNW 9.0 mph14.5 kmh 29.94 in1013.9 mb 0.00 in0.0 mm 0.00 in/hr0.0 mm/hr 0.00 in0.0 mm
01:20 AM 35.5°F1.9°C 25.2°F-3.8°C 66% 4.0 mph WNW6.4 kmh WNW 10.0 mph16.1 kmh 29.94 in1013.9 mb 0.00 in0.0 mm 0.00 in/hr0.0 mm/hr 0.00 in0.0 mm
01:25 AM 35.4°F1.9°C 25.1°F-3.8°C 66% 6.0 mph NW9.7 kmh NW 8.0 mph12.9 kmh 29.94 in1013.9 mb 0.00 in0.0 mm 0.00 in/hr0.0 mm/hr 0.00 in0.0 mm
01:30 AM 35.3°F1.8°C 25.4°F-3.7°C 67% 7.0 mph NW11.3 kmh NW 8.0 mph12.9 kmh 29.95 in1014.2 mb 0.00 in0.0 mm 0.00 in/hr0.0 mm/hr 0.00 in0.0 mm
01:35 AM 35.3°F1.8°C 25.4°F-3.7°C 67% 3.0 mph NNE4.8 kmh NNE 10.0 mph16.1 kmh 29.95 in1014.2 mb 0.00 in0.0 mm 0.00 in/hr0.0 mm/hr 0.00 in0.0 mm
01:40 AM 35.3°F1.8°C 25.4°F-3.7°C 67% 7.0 mph NNW11.3 kmh NNW 9.0 mph14.5 kmh 29.95 in1014.2 mb 0.00 in0.0 mm 0.00 in/hr0.0 mm/hr 0.00 in0.0 mm
01:45 AM 35.3°F1.8°C 25.4°F-3.7°C 67% 4.0 mph N6.4 kmh N 9.0 mph14.5 kmh 29.95 in1014.2 mb 0.00 in0.0 mm 0.00 in/hr0.0 mm/hr 0.00 in0.0 mm
01:50 AM 35.2°F1.8°C 25.3°F-3.7°C 67% 4.0 mph NW6.4 kmh NW 11.0 mph17.7 kmh 29.95 in1014.2 mb 0.00 in0.0 mm 0.00 in/hr0.0 mm/hr 0.00 in0.0 mm
01:55 AM 35.2°F1.8°C 25.3°F-3.7°C 67% 8.0 mph NW12.9 kmh NW 9.0 mph14.5 kmh 29.95 in1014.2 mb 0.00 in0.0 mm 0.00 in/hr0.0 mm/hr 0.00 in0.0 mm
02:00 AM 35.2°F1.8°C 25.3°F-3.7°C 67% 5.0 mph NW8.0 kmh NW 10.0 mph16.1 kmh 29.96 in1014.6 mb 0.00 in0.0 mm 0.00 in/hr0.0 mm/hr 0.00 in0.0 mm
02:05 AM 35.2°F1.8°C 25.3°F-3.7°C 67% 7.0 mph N11.3 kmh N 10.0 mph16.1 kmh 29.96 in1014.6 mb 0.00 in0.0 mm 0.00 in/hr0.0 mm/hr 0.00 in0.0 mm
02:10 AM 35.1°F1.7°C 25.2°F-3.8°C 67% 3.0 mph NNW4.8 kmh NNW 9.0 mph14.5 kmh 29.96 in1014.6 mb 0.00 in0.0 mm 0.00 in/hr0.0 mm/hr 0.00 in0.0 mm
02:15 AM 35.0°F1.7°C 25.1°F-3.8°C 67% 4.0 mph NW6.4 kmh NW 10.0 mph16.1 kmh 29.96 in1014.6 mb 0.00 in0.0 mm 0.00 in/hr0.0 mm/hr 0.00 in0.0 mm
02:20 AM 35.0°F1.7°C 25.1°F-3.8°C 67% 3.0 mph N4.8 kmh N 7.0 mph11.3 kmh 29.96 in1014.6 mb 0.00 in0.0 mm 0.00 in/hr0.0 mm/hr 0.00 in0.0 mm
02:25 AM 34.9°F1.6°C 25.4°F-3.7°C 68% 5.0 mph NW8.0 kmh NW 10.0 mph16.1 kmh 29.96 in1014.6 mb 0.00 in0.0 mm 0.00 in/hr0.0 mm/hr 0.00 in0.0 mm
02:30 AM 34.9°F1.6°C 25.4°F-3.7°C 68% 6.0 mph WNW9.7 kmh WNW 11.0 mph17.7 kmh 29.96 in1014.6 mb 0.00 in0.0 mm 0.00 in/hr0.0 mm/hr 0.00 in0.0 mm
02:35 AM 34.8°F1.6°C 25.3°F-3.7°C 68% 9.0 mph NW14.5 kmh NW 11.0 mph17.7 kmh 29.95 in1014.2 mb 0.00 in0.0 mm 0.00 in/hr0.0 mm/hr 0.00 in0.0 mm
02:40 AM 34.8°F1.6°C 25.3°F-3.7°C 68% 6.0 mph NW9.7 kmh NW 10.0 mph16.1 kmh 29.96 in1014.6 mb 0.00 in0.0 mm 0.00 in/hr0.0 mm/hr 0.00 in0.0 mm
02:45 AM 34.8°F1.6°C 25.3°F-3.7°C 68% 6.0 mph N9.7 kmh N 10.0 mph16.1 kmh 29.96 in1014.6 mb 0.00 in0.0 mm 0.00 in/hr0.0 mm/hr 0.00 in0.0 mm
02:50 AM 34.8°F1.6°C 25.6°F-3.6°C 69% 6.0 mph NW9.7 kmh NW 9.0 mph14.5 kmh 29.96 in1014.6 mb 0.00 in0.0 mm 0.00 in/hr0.0 mm/hr 0.00 in0.0 mm
02:55 AM 34.8°F1.6°C 25.6°F-3.6°C 69% 7.0 mph NW11.3 kmh NW 13.0 mph20.9 kmh 29.96 in1014.6 mb 0.00 in0.0 mm 0.00 in/hr0.0 mm/hr 0.00 in0.0 mm
03:00 AM 34.7°F1.5°C 25.5°F-3.6°C 69% 4.0 mph NNW6.4 kmh NNW 9.0 mph14.5 kmh 29.96 in1014.6 mb 0.00 in0.0 mm 0.00 in/hr0.0 mm/hr 0.00 in0.0 mm
03:05 AM 34.7°F1.5°C 25.5°F-3.6°C 69% 6.0 mph NNW9.7 kmh NNW 11.0 mph17.7 kmh 29.96 in1014.6 mb 0.00 in0.0 mm 0.00 in/hr0.0 mm/hr 0.00 in0.0 mm
03:10 AM 34.6°F1.4°C 25.4°F-3.7°C 69% 8.0 mph NW12.9 kmh NW 10.0 mph16.1 kmh 29.96 in1014.6 mb 0.00 in0.0 mm 0.00 in/hr0.0 mm/hr 0.00 in0.0 mm
03:15 AM 34.6°F1.4°C 25.4°F-3.7°C 69% 8.0 mph NNW12.9 kmh NNW 10.0 mph16.1 kmh 29.95 in1014.2 mb 0.00 in0.0 mm 0.00 in/hr0.0 mm/hr 0.00 in0.0 mm
03:20 AM 34.6°F1.4°C 25.4°F-3.7°C 69% 5.0 mph N8.0 kmh N 9.0 mph14.5 kmh 29.95 in1014.2 mb 0.00 in0.0 mm 0.00 in/hr0.0 mm/hr 0.00 in0.0 mm
03:25 AM 34.7°F1.5°C 25.5°F-3.6°C 69% 7.0 mph N11.3 kmh N 12.0 mph19.3 kmh 29.96 in1014.6 mb 0.00 in0.0 mm 0.00 in/hr0.0 mm/hr 0.00 in0.0 mm
03:30 AM 34.7°F1.5°C 25.5°F-3.6°C 69% 3.0 mph NNE4.8 kmh NNE 12.0 mph19.3 kmh 29.96 in1014.6 mb 0.00 in0.0 mm 0.00 in/hr0.0 mm/hr 0.00 in0.0 mm
03:35 AM 34.7°F1.5°C 25.2°F-3.8°C 68% 8.0 mph N12.9 kmh N 13.0 mph20.9 kmh 29.96 in1014.6 mb 0.00 in0.0 mm 0.00 in/hr0.0 mm/hr 0.00 in0.0 mm
03:40 AM 34.8°F1.6°C 25.3°F-3.7°C 68% 9.0 mph NW14.5 kmh NW 14.0 mph22.5 kmh 29.96 in1014.6 mb 0.00 in0.0 mm 0.00 in/hr0.0 mm/hr 0.00 in0.0 mm
03:45 AM 34.8°F1.6°C 25.3°F-3.7°C 68% 10.0 mph NNW16.1 kmh NNW 10.0 mph16.1 kmh 29.97 in1014.9 mb 0.00 in0.0 mm 0.00 in/hr0.0 mm/hr 0.00 in0.0 mm
03:50 AM 34.8°F1.6°C 25.3°F-3.7°C 68% 6.0 mph NNW9.7 kmh NNW 11.0 mph17.7 kmh 29.97 in1014.9 mb 0.00 in0.0 mm 0.00 in/hr0.0 mm/hr 0.00 in0.0 mm
03:55 AM 34.8°F1.6°C 25.3°F-3.7°C 68% 5.0 mph NNW8.0 kmh NNW 12.0 mph19.3 kmh 29.97 in1014.9 mb 0.00 in0.0 mm 0.00 in/hr0.0 mm/hr 0.00 in0.0 mm
04:00 AM 34.8°F1.6°C 25.3°F-3.7°C 68% 3.0 mph NNW4.8 kmh NNW 14.0 mph22.5 kmh 29.97 in1014.9 mb 0.00 in0.0 mm 0.00 in/hr0.0 mm/hr 0.00 in0.0 mm
04:05 AM 34.7°F1.5°C 25.2°F-3.8°C 68% 5.0 mph NW8.0 kmh NW 11.0 mph17.7 kmh 29.97 in1014.9 mb 0.00 in0.0 mm 0.00 in/hr0.0 mm/hr 0.00 in0.0 mm
04:10 AM 34.7°F1.5°C 25.5°F-3.6°C 69% 7.0 mph NW11.3 kmh NW 12.0 mph19.3 kmh 29.98 in1015.2 mb 0.00 in0.0 mm 0.00 in/hr0.0 mm/hr 0.00 in0.0 mm
04:15 AM 34.6°F1.4°C 25.1°F-3.8°C 68% 7.0 mph NW11.3 kmh NW 10.0 mph16.1 kmh 29.98 in1015.2 mb 0.00 in0.0 mm 0.00 in/hr0.0 mm/hr 0.00 in0.0 mm
04:20 AM 34.6°F1.4°C 25.1°F-3.8°C 68% 4.0 mph NW6.4 kmh NW 12.0 mph19.3 kmh 29.99 in1015.6 mb 0.00 in0.0 mm 0.00 in/hr0.0 mm/hr 0.00 in0.0 mm
04:25 AM 34.5°F1.4°C 25.0°F-3.9°C 68% 5.0 mph NNW8.0 kmh NNW 11.0 mph17.7 kmh 29.99 in1015.6 mb 0.00 in0.0 mm 0.00 in/hr0.0 mm/hr 0.00 in0.0 mm
04:30 AM 34.4°F1.3°C 24.9°F-3.9°C 68% 8.0 mph NW12.9 kmh NW 11.0 mph17.7 kmh 29.99 in1015.6 mb 0.00 in0.0 mm 0.00 in/hr0.0 mm/hr 0.00 in0.0 mm
04:35 AM 34.3°F1.3°C 24.8°F-4.0°C 68% 5.0 mph N8.0 kmh N 12.0 mph19.3 kmh 30.00 in1015.9 mb 0.00 in0.0 mm 0.00 in/hr0.0 mm/hr 0.00 in0.0 mm
04:40 AM 34.2°F1.2°C 24.7°F-4.1°C 68% 4.0 mph NW6.4 kmh NW 8.0 mph12.9 kmh 30.00 in1015.9 mb 0.00 in0.0 mm 0.00 in/hr0.0 mm/hr 0.00 in0.0 mm
04:45 AM 34.1°F1.2°C 24.6°F-4.1°C 68% 7.0 mph NNW11.3 kmh NNW 9.0 mph14.5 kmh 30.01 in1016.3 mb 0.00 in0.0 mm 0.00 in/hr0.0 mm/hr 0.00 in0.0 mm
04:50 AM 34.1°F1.2°C 24.6°F-4.1°C 68% 6.0 mph NW9.7 kmh NW 11.0 mph17.7 kmh 30.01 in1016.3 mb 0.00 in0.0 mm 0.00 in/hr0.0 mm/hr 0.00 in0.0 mm
04:55 AM 33.9°F1.1°C 24.4°F-4.2°C 68% 5.0 mph NNW8.0 kmh NNW 12.0 mph19.3 kmh 30.01 in1016.3 mb 0.00 in0.0 mm 0.00 in/hr0.0 mm/hr 0.00 in0.0 mm
05:00 AM 33.8°F1.0°C 24.7°F-4.1°C 69% 10.0 mph NW16.1 kmh NW 11.0 mph17.7 kmh 30.00 in1015.9 mb 0.00 in0.0 mm 0.00 in/hr0.0 mm/hr 0.00 in0.0 mm
05:05 AM 33.7°F0.9°C 24.6°F-4.1°C 69% 6.0 mph N9.7 kmh N 13.0 mph20.9 kmh 30.00 in1015.9 mb 0.00 in0.0 mm 0.00 in/hr0.0 mm/hr 0.00 in0.0 mm
05:10 AM 33.5°F0.8°C 24.7°F-4.1°C 70% 6.0 mph NW9.7 kmh NW 8.0 mph12.9 kmh 30.01 in1016.3 mb 0.00 in0.0 mm 0.00 in/hr0.0 mm/hr 0.00 in0.0 mm
05:15 AM 33.4°F0.8°C 24.6°F-4.1°C 70% 6.0 mph NW9.7 kmh NW 9.0 mph14.5 kmh 30.01 in1016.3 mb 0.00 in0.0 mm 0.00 in/hr0.0 mm/hr 0.00 in0.0 mm
05:20 AM 33.3°F0.7°C 24.2°F-4.3°C 69% 6.0 mph NNW9.7 kmh NNW 9.0 mph14.5 kmh 30.01 in1016.3 mb 0.00 in0.0 mm 0.00 in/hr0.0 mm/hr 0.00 in0.0 mm
05:25 AM 33.2°F0.7°C 24.1°F-4.4°C 69% 4.0 mph WNW6.4 kmh WNW 9.0 mph14.5 kmh 30.01 in1016.3 mb 0.00 in0.0 mm 0.00 in/hr0.0 mm/hr 0.00 in0.0 mm
05:30 AM 33.0°F0.6°C 23.9°F-4.5°C 69% 6.0 mph N9.7 kmh N 7.0 mph11.3 kmh 30.02 in1016.6 mb 0.00 in0.0 mm 0.00 in/hr0.0 mm/hr 0.00 in0.0 mm
05:35 AM 32.9°F0.5°C 23.8°F-4.6°C 69% 4.0 mph NNW6.4 kmh NNW 7.0 mph11.3 kmh 30.01 in1016.3 mb 0.00 in0.0 mm 0.00 in/hr0.0 mm/hr 0.00 in0.0 mm
05:40 AM 32.7°F0.4°C 24.0°F-4.4°C 70% 7.0 mph NW11.3 kmh NW 9.0 mph14.5 kmh 30.01 in1016.3 mb 0.00 in0.0 mm 0.00 in/hr0.0 mm/hr 0.00 in0.0 mm
05:45 AM 32.6°F0.3°C 23.9°F-4.5°C 70% 6.0 mph NW9.7 kmh NW 10.0 mph16.1 kmh 30.02 in1016.6 mb 0.00 in0.0 mm 0.00 in/hr0.0 mm/hr 0.00 in0.0 mm
05:50 AM 32.5°F0.3°C 23.8°F-4.6°C 70% 5.0 mph NW8.0 kmh NW 8.0 mph12.9 kmh 30.02 in1016.6 mb 0.00 in0.0 mm 0.00 in/hr0.0 mm/hr 0.00 in0.0 mm
05:55 AM 32.4°F0.2°C 23.7°F-4.6°C 70% 4.0 mph NW6.4 kmh NW 10.0 mph16.1 kmh 30.02 in1016.6 mb 0.00 in0.0 mm 0.00 in/hr0.0 mm/hr 0.00 in0.0 mm
06:00 AM 32.3°F0.2°C 23.6°F-4.7°C 70% 4.0 mph NW6.4 kmh NW 9.0 mph14.5 kmh 30.03 in1016.9 mb 0.00 in0.0 mm 0.00 in/hr0.0 mm/hr 0.00 in0.0 mm
06:05 AM 32.2°F0.1°C 23.5°F-4.7°C 70% 6.0 mph N9.7 kmh N 11.0 mph17.7 kmh 30.03 in1016.9 mb 0.00 in0.0 mm 0.00 in/hr0.0 mm/hr 0.00 in0.0 mm
06:10 AM 32.1°F0.1°C 23.4°F-4.8°C 70% 5.0 mph NW8.0 kmh NW 9.0 mph14.5 kmh 30.03 in1016.9 mb 0.00 in0.0 mm 0.00 in/hr0.0 mm/hr 0.00 in0.0 mm
06:15 AM 32.0°F0.0°C 23.3°F-4.8°C 70% 6.0 mph NW9.7 kmh NW 7.0 mph11.3 kmh 30.03 in1016.9 mb 0.00 in0.0 mm 0.00 in/hr0.0 mm/hr 0.00 in0.0 mm
06:20 AM 31.9°F-0.1°C 23.2°F-4.9°C 70% 5.0 mph NNW8.0 kmh NNW 8.0 mph12.9 kmh 30.03 in1016.9 mb 0.00 in0.0 mm 0.00 in/hr0.0 mm/hr 0.00 in0.0 mm
06:25 AM 31.7°F-0.2°C 23.0°F-5.0°C 70% 4.0 mph NNW6.4 kmh NNW 8.0 mph12.9 kmh 30.03 in1016.9 mb 0.00 in0.0 mm 0.00 in/hr0.0 mm/hr 0.00 in0.0 mm
06:30 AM 31.6°F-0.2°C 23.2°F-4.9°C 71% 5.0 mph NNW8.0 kmh NNW 10.0 mph16.1 kmh 30.03 in1016.9 mb 0.00 in0.0 mm 0.00 in/hr0.0 mm/hr 0.00 in0.0 mm
06:35 AM 31.7°F-0.2°C 23.3°F-4.8°C 71% 5.0 mph NNW8.0 kmh NNW 10.0 mph16.1 kmh 30.04 in1017.3 mb 0.00 in0.0 mm 0.00 in/hr0.0 mm/hr 0.00 in0.0 mm
06:40 AM 31.7°F-0.2°C 23.3°F-4.8°C 71% 3.0 mph NW4.8 kmh NW 10.0 mph16.1 kmh 30.04 in1017.3 mb 0.00 in0.0 mm 0.00 in/hr0.0 mm/hr 0.00 in0.0 mm
06:45 AM 31.8°F-0.1°C 23.4°F-4.8°C 71% 5.0 mph NW8.0 kmh NW 14.0 mph22.5 kmh 30.04 in1017.3 mb 0.00 in0.0 mm 0.00 in/hr0.0 mm/hr 0.00 in0.0 mm
06:50 AM 31.7°F-0.2°C 23.3°F-4.8°C 71% 11.0 mph N17.7 kmh N 11.0 mph17.7 kmh 30.04 in1017.3 mb 0.00 in0.0 mm 0.00 in/hr0.0 mm/hr 0.00 in0.0 mm
06:55 AM 31.7°F-0.2°C 23.0°F-5.0°C 70% 7.0 mph NNW11.3 kmh NNW 13.0 mph20.9 kmh 30.05 in1017.6 mb 0.00 in0.0 mm 0.00 in/hr0.0 mm/hr 0.00 in0.0 mm
07:00 AM 31.7°F-0.2°C 23.0°F-5.0°C 70% 11.0 mph 17.7 kmh 14.0 mph22.5 kmh 30.05 in1017.6 mb 0.00 in0.0 mm 0.00 in/hr0.0 mm/hr 0.00 in0.0 mm
07:05 AM 31.7°F-0.2°C 23.0°F-5.0°C 70% 9.0 mph NW14.5 kmh NW 12.0 mph19.3 kmh 30.06 in1017.9 mb 0.00 in0.0 mm 0.00 in/hr0.0 mm/hr 0.00 in0.0 mm
07:10 AM 31.7°F-0.2°C 22.7°F-5.2°C 69% 5.0 mph NW8.0 kmh NW 10.0 mph16.1 kmh 30.06 in1017.9 mb 0.00 in0.0 mm 0.00 in/hr0.0 mm/hr 0.00 in0.0 mm
07:15 AM 31.7°F-0.2°C 22.3°F-5.4°C 68% 5.0 mph N8.0 kmh N 10.0 mph16.1 kmh 30.06 in1017.9 mb 0.00 in0.0 mm 0.00 in/hr0.0 mm/hr 0.00 in0.0 mm
07:20 AM 31.7°F-0.2°C 22.0°F-5.6°C 67% 7.0 mph 11.3 kmh 10.0 mph16.1 kmh 30.06 in1017.9 mb 0.00 in0.0 mm 0.00 in/hr0.0 mm/hr 0.00 in0.0 mm
07:25 AM 31.7°F-0.2°C 21.6°F-5.8°C 66% 6.0 mph NW9.7 kmh NW 14.0 mph22.5 kmh 30.06 in1017.9 mb 0.00 in0.0 mm 0.00 in/hr0.0 mm/hr 0.00 in0.0 mm
07:30 AM 31.7°F-0.2°C 21.3°F-5.9°C 65% 10.0 mph 16.1 kmh 12.0 mph19.3 kmh 30.07 in1018.3 mb 0.00 in0.0 mm 0.00 in/hr0.0 mm/hr 0.00 in0.0 mm
07:35 AM 31.9°F-0.1°C 21.4°F-5.9°C 65% 5.0 mph N8.0 kmh N 13.0 mph20.9 kmh 30.07 in1018.3 mb 0.00 in0.0 mm 0.00 in/hr0.0 mm/hr 0.00 in0.0 mm
07:40 AM 32.0°F0.0°C 21.9°F-5.6°C 66% 4.0 mph NNE6.4 kmh NNE 9.0 mph14.5 kmh 30.08 in1018.6 mb 0.00 in0.0 mm 0.00 in/hr0.0 mm/hr 0.00 in0.0 mm
07:45 AM 32.1°F0.1°C 22.3°F-5.4°C 67% 2.0 mph NW3.2 kmh NW 8.0 mph12.9 kmh 30.08 in1018.6 mb 0.00 in0.0 mm 0.00 in/hr0.0 mm/hr 0.00 in0.0 mm
07:50 AM 32.2°F0.1°C 22.4°F-5.3°C 67% 7.0 mph N11.3 kmh N 8.0 mph12.9 kmh 30.08 in1018.6 mb 0.00 in0.0 mm 0.00 in/hr0.0 mm/hr 0.00 in0.0 mm
07:55 AM 32.4°F0.2°C 22.6°F-5.2°C 67% 3.0 mph N4.8 kmh N 8.0 mph12.9 kmh 30.08 in1018.6 mb 0.00 in0.0 mm 0.00 in/hr0.0 mm/hr 0.00 in0.0 mm
08:00 AM 32.5°F0.3°C 22.7°F-5.2°C 67% 4.0 mph N6.4 kmh N 9.0 mph14.5 kmh 30.09 in1019.0 mb 0.00 in0.0 mm 0.00 in/hr0.0 mm/hr 0.00 in0.0 mm
08:05 AM 32.6°F0.3°C 22.8°F-5.1°C 67% 5.0 mph NNW8.0 kmh NNW 8.0 mph12.9 kmh 30.09 in1019.0 mb 0.00 in0.0 mm 0.00 in/hr0.0 mm/hr 0.00 in0.0 mm
08:10 AM 32.7°F0.4°C 22.9°F-5.1°C 67% 3.0 mph N4.8 kmh N 7.0 mph11.3 kmh 30.09 in1019.0 mb 0.00 in0.0 mm 0.00 in/hr0.0 mm/hr 0.00 in0.0 mm
08:15 AM 32.8°F0.4°C 23.0°F-5.0°C 67% 3.0 mph NNE4.8 kmh NNE 8.0 mph12.9 kmh 30.09 in1019.0 mb 0.00 in0.0 mm 0.00 in/hr0.0 mm/hr 0.00 in0.0 mm
08:20 AM 32.9°F0.5°C 23.5°F-4.7°C 68% 2.0 mph NNW3.2 kmh NNW 5.0 mph8.0 kmh 30.10 in1019.3 mb 0.00 in0.0 mm 0.00 in/hr0.0 mm/hr 0.00 in0.0 mm
08:25 AM 33.1°F0.6°C 23.7°F-4.6°C 68% 5.0 mph N8.0 kmh N 8.0 mph12.9 kmh 30.10 in1019.3 mb 0.00 in0.0 mm 0.00 in/hr0.0 mm/hr 0.00 in0.0 mm
08:30 AM 33.3°F0.7°C 23.8°F-4.6°C 68% 3.0 mph N4.8 kmh N 8.0 mph12.9 kmh 30.10 in1019.3 mb 0.00 in0.0 mm 0.00 in/hr0.0 mm/hr 0.00 in0.0 mm
08:35 AM 33.5°F0.8°C 23.7°F-4.6°C 67% 1.0 mph N1.6 kmh N 6.0 mph9.7 kmh 30.10 in1019.3 mb 0.00 in0.0 mm 0.00 in/hr0.0 mm/hr 0.00 in0.0 mm
08:50 AM 34.1°F1.2°C 22.4°F-5.3°C 62% 1.0 mph NW1.6 kmh NW 8.0 mph12.9 kmh 30.11 in1019.6 mb 0.00 in0.0 mm 0.00 in/hr0.0 mm/hr 0.00 in0.0 mm
08:55 AM 34.2°F1.2°C 22.1°F-5.5°C 61% 4.0 mph ENE6.4 kmh ENE 6.0 mph9.7 kmh 30.11 in1019.6 mb 0.00 in0.0 mm 0.00 in/hr0.0 mm/hr 0.00 in0.0 mm
09:00 AM 34.4°F1.3°C 21.5°F-5.8°C 59% 4.0 mph N6.4 kmh N 8.0 mph12.9 kmh 30.11 in1019.6 mb 0.00 in0.0 mm 0.00 in/hr0.0 mm/hr 0.00 in0.0 mm
09:05 AM 34.8°F1.6°C 21.5°F-5.8°C 58% 6.0 mph N9.7 kmh N 6.0 mph9.7 kmh 30.11 in1019.6 mb 0.00 in0.0 mm 0.00 in/hr0.0 mm/hr 0.00 in0.0 mm
09:15 AM 35.6°F2.0°C 21.8°F-5.7°C 57% 5.0 mph NE8.0 kmh NE 7.0 mph11.3 kmh 30.11 in1019.6 mb 0.00 in0.0 mm 0.00 in/hr0.0 mm/hr 0.00 in0.0 mm
09:20 AM 36.1°F2.3°C 22.7°F-5.2°C 58% 5.0 mph NNE8.0 kmh NNE 9.0 mph14.5 kmh 30.11 in1019.6 mb 0.00 in0.0 mm 0.00 in/hr0.0 mm/hr 0.00 in0.0 mm
09:25 AM 36.2°F2.3°C 22.4°F-5.3°C 57% 5.0 mph N8.0 kmh N 8.0 mph12.9 kmh 30.12 in1020.0 mb 0.00 in0.0 mm 0.00 in/hr0.0 mm/hr 0.00 in0.0 mm
09:30 AM 36.5°F2.5°C 22.7°F-5.2°C 57% 3.0 mph N4.8 kmh N 7.0 mph11.3 kmh 30.12 in1020.0 mb 0.00 in0.0 mm 0.00 in/hr0.0 mm/hr 0.00 in0.0 mm
09:35 AM 36.7°F2.6°C 22.9°F-5.1°C 57% 7.0 mph NNE11.3 kmh NNE 7.0 mph11.3 kmh 30.12 in1020.0 mb 0.00 in0.0 mm 0.00 in/hr0.0 mm/hr 0.00 in0.0 mm
09:40 AM 36.9°F2.7°C 23.1°F-4.9°C 57% 8.0 mph NNW12.9 kmh NNW 9.0 mph14.5 kmh 30.12 in1020.0 mb 0.00 in0.0 mm 0.00 in/hr0.0 mm/hr 0.00 in0.0 mm
09:45 AM 37.1°F2.8°C 23.7°F-4.6°C 58% 3.0 mph N4.8 kmh N 8.0 mph12.9 kmh 30.12 in1020.0 mb 0.00 in0.0 mm 0.00 in/hr0.0 mm/hr 0.00 in0.0 mm
09:50 AM 37.3°F2.9°C 23.4°F-4.8°C 57% 2.0 mph NNW3.2 kmh NNW 8.0 mph12.9 kmh 30.12 in1020.0 mb 0.00 in0.0 mm 0.00 in/hr0.0 mm/hr 0.00 in0.0 mm
09:55 AM 37.5°F3.1°C 24.0°F-4.4°C 58% 5.0 mph NNW8.0 kmh NNW 8.0 mph12.9 kmh 30.12 in1020.0 mb 0.00 in0.0 mm 0.00 in/hr0.0 mm/hr 0.00 in0.0 mm
10:00 AM 37.6°F3.1°C 24.5°F-4.2°C 59% 3.0 mph NE4.8 kmh NE 7.0 mph11.3 kmh 30.12 in1020.0 mb 0.00 in0.0 mm 0.00 in/hr0.0 mm/hr 0.00 in0.0 mm
10:05 AM 37.5°F3.1°C 24.4°F-4.2°C 59% 1.0 mph NE1.6 kmh NE 7.0 mph11.3 kmh 30.12 in1020.0 mb 0.00 in0.0 mm 0.00 in/hr0.0 mm/hr 0.00 in0.0 mm
10:10 AM 37.7°F3.2°C 24.6°F-4.1°C 59% 6.0 mph N9.7 kmh N 10.0 mph16.1 kmh 30.12 in1020.0 mb 0.00 in0.0 mm 0.00 in/hr0.0 mm/hr 0.00 in0.0 mm
10:15 AM 38.0°F3.3°C 25.3°F-3.7°C 60% 6.0 mph N9.7 kmh N 10.0 mph16.1 kmh 30.12 in1020.0 mb 0.00 in0.0 mm 0.00 in/hr0.0 mm/hr 0.00 in0.0 mm
10:20 AM 37.9°F3.3°C 25.2°F-3.8°C 60% 5.0 mph NE8.0 kmh NE 10.0 mph16.1 kmh 30.12 in1020.0 mb 0.00 in0.0 mm 0.00 in/hr0.0 mm/hr 0.00 in0.0 mm
10:25 AM 37.9°F3.3°C 25.2°F-3.8°C 60% 6.0 mph NNW9.7 kmh NNW 8.0 mph12.9 kmh 30.12 in1020.0 mb 0.00 in0.0 mm 0.00 in/hr0.0 mm/hr 0.00 in0.0 mm
10:30 AM 38.0°F3.3°C 25.3°F-3.7°C 60% 2.0 mph NE3.2 kmh NE 10.0 mph16.1 kmh 30.12 in1020.0 mb 0.00 in0.0 mm 0.00 in/hr0.0 mm/hr 0.00 in0.0 mm
10:35 AM 38.0°F3.3°C 25.3°F-3.7°C 60% 2.0 mph ENE3.2 kmh ENE 7.0 mph11.3 kmh 30.12 in1020.0 mb 0.00 in0.0 mm 0.00 in/hr0.0 mm/hr 0.00 in0.0 mm
10:40 AM 38.2°F3.4°C 25.1°F-3.8°C 59% 3.0 mph N4.8 kmh N 7.0 mph11.3 kmh 30.12 in1020.0 mb 0.00 in0.0 mm 0.00 in/hr0.0 mm/hr 0.00 in0.0 mm
10:45 AM 38.5°F3.6°C 25.4°F-3.7°C 59% 5.0 mph NNE8.0 kmh NNE 8.0 mph12.9 kmh 30.12 in1020.0 mb 0.00 in0.0 mm 0.00 in/hr0.0 mm/hr 0.00 in0.0 mm
10:50 AM 38.6°F3.7°C 25.5°F-3.6°C 59% 6.0 mph E9.7 kmh E 9.0 mph14.5 kmh 30.11 in1019.6 mb 0.00 in0.0 mm 0.00 in/hr0.0 mm/hr 0.00 in0.0 mm
10:55 AM 38.5°F3.6°C 25.4°F-3.7°C 59% 4.0 mph ENE6.4 kmh ENE 10.0 mph16.1 kmh 30.11 in1019.6 mb 0.00 in0.0 mm 0.00 in/hr0.0 mm/hr 0.00 in0.0 mm
11:00 AM 38.4°F3.6°C 25.3°F-3.7°C 59% 4.0 mph ENE6.4 kmh ENE 10.0 mph16.1 kmh 30.10 in1019.3 mb 0.00 in0.0 mm 0.00 in/hr0.0 mm/hr 0.00 in0.0 mm
11:05 AM 38.1°F3.4°C 25.0°F-3.9°C 59% 7.0 mph NE11.3 kmh NE 11.0 mph17.7 kmh 30.10 in1019.3 mb 0.00 in0.0 mm 0.00 in/hr0.0 mm/hr 0.00 in0.0 mm
11:10 AM 37.9°F3.3°C 25.2°F-3.8°C 60% 4.0 mph SE6.4 kmh SE 10.0 mph16.1 kmh 30.09 in1019.0 mb 0.00 in0.0 mm 0.00 in/hr0.0 mm/hr 0.00 in0.0 mm
11:15 AM 38.0°F3.3°C 25.3°F-3.7°C 60% 6.0 mph ENE9.7 kmh ENE 11.0 mph17.7 kmh 30.10 in1019.3 mb 0.00 in0.0 mm 0.00 in/hr0.0 mm/hr 0.00 in0.0 mm
11:20 AM 38.0°F3.3°C 24.9°F-3.9°C 59% 5.0 mph E8.0 kmh E 8.0 mph12.9 kmh 30.10 in1019.3 mb 0.00 in0.0 mm 0.00 in/hr0.0 mm/hr 0.00 in0.0 mm
11:25 AM 37.9°F3.3°C 24.8°F-4.0°C 59% 4.0 mph ENE6.4 kmh ENE 11.0 mph17.7 kmh 30.10 in1019.3 mb 0.00 in0.0 mm 0.00 in/hr0.0 mm/hr 0.00 in0.0 mm
11:30 AM 37.7°F3.2°C 24.6°F-4.1°C 59% 5.0 mph E8.0 kmh E 6.0 mph9.7 kmh 30.09 in1019.0 mb 0.00 in0.0 mm 0.00 in/hr0.0 mm/hr 0.00 in0.0 mm
11:35 AM 37.7°F3.2°C 24.6°F-4.1°C 59% Calm Calm 8.0 mph12.9 kmh 30.09 in1019.0 mb 0.00 in0.0 mm 0.00 in/hr0.0 mm/hr 0.00 in0.0 mm
11:40 AM 37.8°F3.2°C 25.1°F-3.8°C 60% 5.0 mph ENE8.0 kmh ENE 11.0 mph17.7 kmh 30.10 in1019.3 mb 0.00 in0.0 mm 0.00 in/hr0.0 mm/hr 0.00 in0.0 mm
11:45 AM 37.8°F3.2°C 24.7°F-4.1°C 59% Calm Calm 8.0 mph12.9 kmh 30.10 in1019.3 mb 0.00 in0.0 mm 0.00 in/hr0.0 mm/hr 0.00 in0.0 mm
11:50 AM 38.1°F3.4°C 25.4°F-3.7°C 60% 3.0 mph ENE4.8 kmh ENE 7.0 mph11.3 kmh 30.10 in1019.3 mb 0.00 in0.0 mm 0.00 in/hr0.0 mm/hr 0.00 in0.0 mm
11:55 AM 38.2°F3.4°C 25.1°F-3.8°C 59% 2.0 mph NE3.2 kmh NE 10.0 mph16.1 kmh 30.10 in1019.3 mb 0.00 in0.0 mm 0.00 in/hr0.0 mm/hr 0.00 in0.0 mm
12:00 PM 38.3°F3.5°C 25.6°F-3.6°C 60% 5.0 mph ENE8.0 kmh ENE 6.0 mph9.7 kmh 30.10 in1019.3 mb 0.00 in0.0 mm 0.00 in/hr0.0 mm/hr 0.00 in0.0 mm
12:05 PM 38.5°F3.6°C 25.4°F-3.7°C 59% 5.0 mph ENE8.0 kmh ENE 7.0 mph11.3 kmh 30.10 in1019.3 mb 0.00 in0.0 mm 0.00 in/hr0.0 mm/hr 0.00 in0.0 mm
12:10 PM 38.6°F3.7°C 25.5°F-3.6°C 59% 4.0 mph ESE6.4 kmh ESE 6.0 mph9.7 kmh 30.11 in1019.6 mb 0.00 in0.0 mm 0.00 in/hr0.0 mm/hr 0.00 in0.0 mm
12:15 PM 38.6°F3.7°C 25.1°F-3.8°C 58% 5.0 mph E8.0 kmh E 10.0 mph16.1 kmh 30.10 in1019.3 mb 0.00 in0.0 mm 0.00 in/hr0.0 mm/hr 0.00 in0.0 mm
12:20 PM 38.2°F3.4°C 25.5°F-3.6°C 60% 4.0 mph E6.4 kmh E 8.0 mph12.9 kmh 30.10 in1019.3 mb 0.00 in0.0 mm 0.00 in/hr0.0 mm/hr 0.00 in0.0 mm
12:25 PM 38.2°F3.4°C 25.5°F-3.6°C 60% 6.0 mph ESE9.7 kmh ESE 8.0 mph12.9 kmh 30.10 in1019.3 mb 0.00 in0.0 mm 0.00 in/hr0.0 mm/hr 0.00 in0.0 mm
12:30 PM 38.3°F3.5°C 25.6°F-3.6°C 60% 7.0 mph SE11.3 kmh SE 9.0 mph14.5 kmh 30.10 in1019.3 mb 0.00 in0.0 mm 0.00 in/hr0.0 mm/hr 0.00 in0.0 mm
12:35 PM 38.2°F3.4°C 25.1°F-3.8°C 59% 6.0 mph ESE9.7 kmh ESE 11.0 mph17.7 kmh 30.09 in1019.0 mb 0.00 in0.0 mm 0.00 in/hr0.0 mm/hr 0.00 in0.0 mm
12:40 PM 38.3°F3.5°C 26.0°F-3.3°C 61% 2.0 mph SE3.2 kmh SE 7.0 mph11.3 kmh 30.09 in1019.0 mb 0.00 in0.0 mm 0.00 in/hr0.0 mm/hr 0.00 in0.0 mm
12:45 PM 38.8°F3.8°C 25.7°F-3.5°C 59% 6.0 mph SE9.7 kmh SE 8.0 mph12.9 kmh 30.09 in1019.0 mb 0.00 in0.0 mm 0.00 in/hr0.0 mm/hr 0.00 in0.0 mm
12:50 PM 39.2°F4.0°C 25.6°F-3.6°C 58% 4.0 mph ESE6.4 kmh ESE 9.0 mph14.5 kmh 30.08 in1018.6 mb 0.00 in0.0 mm 0.00 in/hr0.0 mm/hr 0.00 in0.0 mm
12:55 PM 39.0°F3.9°C 25.0°F-3.9°C 57% 3.0 mph E4.8 kmh E 8.0 mph12.9 kmh 30.08 in1018.6 mb 0.00 in0.0 mm 0.00 in/hr0.0 mm/hr 0.00 in0.0 mm
01:00 PM 38.9°F3.8°C 25.8°F-3.4°C 59% 5.0 mph SE8.0 kmh SE 9.0 mph14.5 kmh 30.09 in1019.0 mb 0.00 in0.0 mm 0.00 in/hr0.0 mm/hr 0.00 in0.0 mm
01:05 PM 38.9°F3.8°C 25.8°F-3.4°C 59% 5.0 mph SE8.0 kmh SE 7.0 mph11.3 kmh 30.09 in1019.0 mb 0.00 in0.0 mm 0.00 in/hr0.0 mm/hr 0.00 in0.0 mm
01:10 PM 38.8°F3.8°C 25.3°F-3.7°C 58% 5.0 mph SE8.0 kmh SE 6.0 mph9.7 kmh 30.09 in1019.0 mb 0.00 in0.0 mm 0.00 in/hr0.0 mm/hr 0.00 in0.0 mm
01:15 PM 38.5°F3.6°C 24.6°F-4.1°C 57% 5.0 mph ESE8.0 kmh ESE 9.0 mph14.5 kmh 30.09 in1019.0 mb 0.00 in0.0 mm 0.00 in/hr0.0 mm/hr 0.00 in0.0 mm
01:20 PM 38.1°F3.4°C 25.0°F-3.9°C 59% 4.0 mph ENE6.4 kmh ENE 11.0 mph17.7 kmh 30.09 in1019.0 mb 0.00 in0.0 mm 0.00 in/hr0.0 mm/hr 0.00 in0.0 mm
01:25 PM 37.8°F3.2°C 24.7°F-4.1°C 59% 2.0 mph E3.2 kmh E 8.0 mph12.9 kmh 30.09 in1019.0 mb 0.00 in0.0 mm 0.00 in/hr0.0 mm/hr 0.00 in0.0 mm
01:30 PM 37.6°F3.1°C 24.5°F-4.2°C 59% 1.0 mph E1.6 kmh E 8.0 mph12.9 kmh 30.10 in1019.3 mb 0.00 in0.0 mm 0.00 in/hr0.0 mm/hr 0.00 in0.0 mm
01:35 PM 37.1°F2.8°C 24.5°F-4.2°C 60% 6.0 mph E9.7 kmh E 8.0 mph12.9 kmh 30.10 in1019.3 mb 0.00 in0.0 mm 0.00 in/hr0.0 mm/hr 0.00 in0.0 mm
01:40 PM 36.9°F2.7°C 24.3°F-4.3°C 60% 4.0 mph ENE6.4 kmh ENE 8.0 mph12.9 kmh 30.09 in1019.0 mb 0.00 in0.0 mm 0.00 in/hr0.0 mm/hr 0.00 in0.0 mm
01:45 PM 37.0°F2.8°C 24.8°F-4.0°C 61% 6.0 mph E9.7 kmh E 8.0 mph12.9 kmh 30.09 in1019.0 mb 0.00 in0.0 mm 0.00 in/hr0.0 mm/hr 0.00 in0.0 mm
01:50 PM 37.0°F2.8°C 25.2°F-3.8°C 62% 4.0 mph E6.4 kmh E 9.0 mph14.5 kmh 30.09 in1019.0 mb 0.00 in0.0 mm 0.00 in/hr0.0 mm/hr 0.00 in0.0 mm
01:55 PM 37.1°F2.8°C 24.9°F-3.9°C 61% 4.0 mph E6.4 kmh E 11.0 mph17.7 kmh 30.10 in1019.3 mb 0.00 in0.0 mm 0.00 in/hr0.0 mm/hr 0.00 in0.0 mm
02:00 PM 36.8°F2.7°C 24.2°F-4.3°C 60% 7.0 mph E11.3 kmh E 9.0 mph14.5 kmh 30.10 in1019.3 mb 0.00 in0.0 mm 0.00 in/hr0.0 mm/hr 0.00 in0.0 mm
02:05 PM 36.6°F2.6°C 24.4°F-4.2°C 61% Calm Calm 7.0 mph11.3 kmh 30.10 in1019.3 mb 0.00 in0.0 mm 0.00 in/hr0.0 mm/hr 0.00 in0.0 mm
02:10 PM 36.6°F2.6°C 24.4°F-4.2°C 61% 3.0 mph ENE4.8 kmh ENE 8.0 mph12.9 kmh 30.10 in1019.3 mb 0.00 in0.0 mm 0.00 in/hr0.0 mm/hr 0.00 in0.0 mm
02:15 PM 36.6°F2.6°C 24.4°F-4.2°C 61% 3.0 mph E4.8 kmh E 7.0 mph11.3 kmh 30.11 in1019.6 mb 0.00 in0.0 mm 0.00 in/hr0.0 mm/hr 0.00 in0.0 mm
02:20 PM 36.4°F2.4°C 24.2°F-4.3°C 61% 8.0 mph E12.9 kmh E 11.0 mph17.7 kmh 30.10 in1019.3 mb 0.00 in0.0 mm 0.00 in/hr0.0 mm/hr 0.00 in0.0 mm
02:25 PM 36.1°F2.3°C 24.7°F-4.1°C 63% 8.0 mph E12.9 kmh E 9.0 mph14.5 kmh 30.10 in1019.3 mb 0.00 in0.0 mm 0.00 in/hr0.0 mm/hr 0.00 in0.0 mm
02:31 PM 35.8°F2.1°C 24.0°F-4.4°C 62% 9.0 mph ESE14.5 kmh ESE 12.0 mph19.3 kmh 30.10 in1019.3 mb 0.00 in0.0 mm 0.00 in/hr0.0 mm/hr 0.00 in0.0 mm
02:35 PM 35.6°F2.0°C 23.8°F-4.6°C 62% 6.0 mph E9.7 kmh E 11.0 mph17.7 kmh 30.10 in1019.3 mb 0.00 in0.0 mm 0.00 in/hr0.0 mm/hr 0.00 in0.0 mm
02:40 PM 35.5°F1.9°C 24.1°F-4.4°C 63% 4.0 mph E6.4 kmh E 10.0 mph16.1 kmh 30.10 in1019.3 mb 0.00 in0.0 mm 0.00 in/hr0.0 mm/hr 0.00 in0.0 mm
02:45 PM 35.5°F1.9°C 24.1°F-4.4°C 63% 6.0 mph E9.7 kmh E 9.0 mph14.5 kmh 30.11 in1019.6 mb 0.00 in0.0 mm 0.00 in/hr0.0 mm/hr 0.00 in0.0 mm
02:50 PM 35.4°F1.9°C 24.4°F-4.2°C 64% 7.0 mph ESE11.3 kmh ESE 11.0 mph17.7 kmh 30.10 in1019.3 mb 0.00 in0.0 mm 0.00 in/hr0.0 mm/hr 0.00 in0.0 mm
02:55 PM 35.4°F1.9°C 24.4°F-4.2°C 64% 7.0 mph E11.3 kmh E 9.0 mph14.5 kmh 30.10 in1019.3 mb 0.00 in0.0 mm 0.00 in/hr0.0 mm/hr 0.00 in0.0 mm
03:00 PM 35.3°F1.8°C 24.3°F-4.3°C 64% 4.0 mph E6.4 kmh E 8.0 mph12.9 kmh 30.11 in1019.6 mb 0.00 in0.0 mm 0.00 in/hr0.0 mm/hr 0.00 in0.0 mm
03:05 PM 35.3°F1.8°C 23.9°F-4.5°C 63% 5.0 mph ENE8.0 kmh ENE 9.0 mph14.5 kmh 30.10 in1019.3 mb 0.00 in0.0 mm 0.00 in/hr0.0 mm/hr 0.00 in0.0 mm
03:10 PM 35.2°F1.8°C 24.2°F-4.3°C 64% 5.0 mph ESE8.0 kmh ESE 11.0 mph17.7 kmh 30.11 in1019.6 mb 0.00 in0.0 mm 0.00 in/hr0.0 mm/hr 0.00 in0.0 mm
03:15 PM 35.2°F1.8°C 24.2°F-4.3°C 64% 4.0 mph SE6.4 kmh SE 12.0 mph19.3 kmh 30.11 in1019.6 mb 0.00 in0.0 mm 0.00 in/hr0.0 mm/hr 0.00 in0.0 mm
03:20 PM 35.3°F1.8°C 24.7°F-4.1°C 65% 7.0 mph SE11.3 kmh SE 11.0 mph17.7 kmh 30.11 in1019.6 mb 0.00 in0.0 mm 0.00 in/hr0.0 mm/hr 0.00 in0.0 mm
03:25 PM 35.3°F1.8°C 24.7°F-4.1°C 65% 6.0 mph SE9.7 kmh SE 9.0 mph14.5 kmh 30.12 in1020.0 mb 0.00 in0.0 mm 0.00 in/hr0.0 mm/hr 0.00 in0.0 mm
03:30 PM 35.4°F1.9°C 24.8°F-4.0°C 65% 9.0 mph ESE14.5 kmh ESE 11.0 mph17.7 kmh 30.12 in1020.0 mb 0.00 in0.0 mm 0.00 in/hr0.0 mm/hr 0.00 in0.0 mm
03:35 PM 35.3°F1.8°C 24.3°F-4.3°C 64% 8.0 mph SE12.9 kmh SE 11.0 mph17.7 kmh 30.12 in1020.0 mb 0.00 in0.0 mm 0.00 in/hr0.0 mm/hr 0.00 in0.0 mm
03:40 PM 35.4°F1.9°C 24.4°F-4.2°C 64% 8.0 mph E12.9 kmh E 12.0 mph19.3 kmh 30.12 in1020.0 mb 0.00 in0.0 mm 0.00 in/hr0.0 mm/hr 0.00 in0.0 mm
03:45 PM 35.3°F1.8°C 24.7°F-4.1°C 65% 7.0 mph E11.3 kmh E 12.0 mph19.3 kmh 30.12 in1020.0 mb 0.00 in0.0 mm 0.00 in/hr0.0 mm/hr 0.00 in0.0 mm
03:50 PM 35.3°F1.8°C 24.7°F-4.1°C 65% 5.0 mph ESE8.0 kmh ESE 13.0 mph20.9 kmh 30.12 in1020.0 mb 0.00 in0.0 mm 0.00 in/hr0.0 mm/hr 0.00 in0.0 mm
03:55 PM 35.3°F1.8°C 25.0°F-3.9°C 66% 5.0 mph E8.0 kmh E 11.0 mph17.7 kmh 30.12 in1020.0 mb 0.00 in0.0 mm 0.00 in/hr0.0 mm/hr 0.00 in0.0 mm
04:00 PM 35.3°F1.8°C 25.0°F-3.9°C 66% 7.0 mph ESE11.3 kmh ESE 9.0 mph14.5 kmh 30.12 in1020.0 mb 0.00 in0.0 mm 0.00 in/hr0.0 mm/hr 0.00 in0.0 mm
04:05 PM 35.3°F1.8°C 25.0°F-3.9°C 66% 6.0 mph ESE9.7 kmh ESE 11.0 mph17.7 kmh 30.12 in1020.0 mb 0.00 in0.0 mm 0.00 in/hr0.0 mm/hr 0.00 in0.0 mm
04:10 PM 35.4°F1.9°C 25.1°F-3.8°C 66% 6.0 mph E9.7 kmh E 11.0 mph17.7 kmh 30.12 in1020.0 mb 0.00 in0.0 mm 0.00 in/hr0.0 mm/hr 0.00 in0.0 mm
04:15 PM 35.4°F1.9°C 25.5°F-3.6°C 67% 12.0 mph E19.3 kmh E 13.0 mph20.9 kmh 30.12 in1020.0 mb 0.00 in0.0 mm 0.00 in/hr0.0 mm/hr 0.00 in0.0 mm
04:20 PM 35.4°F1.9°C 25.1°F-3.8°C 66% 11.0 mph SE17.7 kmh SE 12.0 mph19.3 kmh 30.11 in1019.6 mb 0.00 in0.0 mm 0.00 in/hr0.0 mm/hr 0.00 in0.0 mm
04:25 PM 35.4°F1.9°C 25.5°F-3.6°C 67% 7.0 mph ESE11.3 kmh ESE 12.0 mph19.3 kmh 30.12 in1020.0 mb 0.00 in0.0 mm 0.00 in/hr0.0 mm/hr 0.00 in0.0 mm
04:30 PM 35.4°F1.9°C 25.5°F-3.6°C 67% 8.0 mph ESE12.9 kmh ESE 13.0 mph20.9 kmh 30.12 in1020.0 mb 0.00 in0.0 mm 0.00 in/hr0.0 mm/hr 0.00 in0.0 mm
04:35 PM 35.5°F1.9°C 26.0°F-3.3°C 68% 9.0 mph E14.5 kmh E 12.0 mph19.3 kmh 30.12 in1020.0 mb 0.00 in0.0 mm 0.00 in/hr0.0 mm/hr 0.00 in0.0 mm
04:40 PM 35.6°F2.0°C 26.0°F-3.3°C 68% 7.0 mph ESE11.3 kmh ESE 12.0 mph19.3 kmh 30.12 in1020.0 mb 0.00 in0.0 mm 0.00 in/hr0.0 mm/hr 0.00 in0.0 mm
04:45 PM 35.6°F2.0°C 26.0°F-3.3°C 68% 9.0 mph SE14.5 kmh SE 14.0 mph22.5 kmh 30.12 in1020.0 mb 0.00 in0.0 mm 0.00 in/hr0.0 mm/hr 0.00 in0.0 mm
04:50 PM 35.6°F2.0°C 25.7°F-3.5°C 67% 5.0 mph ESE8.0 kmh ESE 11.0 mph17.7 kmh 30.12 in1020.0 mb 0.00 in0.0 mm 0.00 in/hr0.0 mm/hr 0.00 in0.0 mm
04:55 PM 35.7°F2.1°C 26.1°F-3.3°C 68% 5.0 mph E8.0 kmh E 12.0 mph19.3 kmh 30.12 in1020.0 mb 0.00 in0.0 mm 0.00 in/hr0.0 mm/hr 0.00 in0.0 mm
05:00 PM 35.8°F2.1°C 26.6°F-3.0°C 69% 13.0 mph ESE20.9 kmh ESE 14.0 mph22.5 kmh 30.11 in1019.6 mb 0.00 in0.0 mm 0.00 in/hr0.0 mm/hr 0.00 in0.0 mm
05:05 PM 35.8°F2.1°C 26.6°F-3.0°C 69% 6.0 mph ESE9.7 kmh ESE 15.0 mph24.1 kmh 30.11 in1019.6 mb 0.00 in0.0 mm 0.00 in/hr0.0 mm/hr 0.00 in0.0 mm
05:10 PM 35.9°F2.2°C 27.0°F-2.8°C 70% 7.0 mph E11.3 kmh E 13.0 mph20.9 kmh 30.11 in1019.6 mb 0.00 in0.0 mm 0.00 in/hr0.0 mm/hr 0.00 in0.0 mm
05:15 PM 36.0°F2.2°C 27.5°F-2.5°C 71% 12.0 mph ESE19.3 kmh ESE 14.0 mph22.5 kmh 30.11 in1019.6 mb 0.00 in0.0 mm 0.00 in/hr0.0 mm/hr 0.00 in0.0 mm
05:20 PM 36.0°F2.2°C 27.1°F-2.7°C 70% 12.0 mph SE19.3 kmh SE 14.0 mph22.5 kmh 30.11 in1019.6 mb 0.00 in0.0 mm 0.00 in/hr0.0 mm/hr 0.00 in0.0 mm
05:25 PM 36.2°F2.3°C 27.7°F-2.4°C 71% 6.0 mph SE9.7 kmh SE 14.0 mph22.5 kmh 30.11 in1019.6 mb 0.00 in0.0 mm 0.00 in/hr0.0 mm/hr 0.00 in0.0 mm
05:30 PM 36.3°F2.4°C 27.8°F-2.3°C 71% 8.0 mph ESE12.9 kmh ESE 14.0 mph22.5 kmh 30.11 in1019.6 mb 0.00 in0.0 mm 0.00 in/hr0.0 mm/hr 0.00 in0.0 mm
05:35 PM 36.3°F2.4°C 27.4°F-2.6°C 70% 9.0 mph SE14.5 kmh SE 14.0 mph22.5 kmh 30.11 in1019.6 mb 0.00 in0.0 mm 0.00 in/hr0.0 mm/hr 0.00 in0.0 mm
05:40 PM 36.3°F2.4°C 27.8°F-2.3°C 71% 9.0 mph SE14.5 kmh SE 14.0 mph22.5 kmh 30.11 in1019.6 mb 0.00 in0.0 mm 0.00 in/hr0.0 mm/hr 0.00 in0.0 mm
05:45 PM 36.3°F2.4°C 28.1°F-2.2°C 72% 12.0 mph ESE19.3 kmh ESE 13.0 mph20.9 kmh 30.11 in1019.6 mb 0.00 in0.0 mm 0.00 in/hr0.0 mm/hr 0.00 in0.0 mm
05:50 PM 36.4°F2.4°C 28.5°F-1.9°C 73% 11.0 mph ESE17.7 kmh ESE 13.0 mph20.9 kmh 30.11 in1019.6 mb 0.00 in0.0 mm 0.00 in/hr0.0 mm/hr 0.00 in0.0 mm
05:55 PM 36.4°F2.4°C 28.9°F-1.7°C 74% 16.0 mph ESE25.7 kmh ESE 16.0 mph25.7 kmh 30.11 in1019.6 mb 0.00 in0.0 mm 0.00 in/hr0.0 mm/hr 0.00 in0.0 mm
06:00 PM 36.4°F2.4°C 28.9°F-1.7°C 74% 11.0 mph E17.7 kmh E 19.0 mph30.6 kmh 30.11 in1019.6 mb 0.00 in0.0 mm 0.00 in/hr0.0 mm/hr 0.00 in0.0 mm
06:05 PM 36.5°F2.5°C 29.0°F-1.7°C 74% 12.0 mph ESE19.3 kmh ESE 18.0 mph29.0 kmh 30.11 in1019.6 mb 0.00 in0.0 mm 0.00 in/hr0.0 mm/hr 0.00 in0.0 mm
06:10 PM 36.5°F2.5°C 29.0°F-1.7°C 74% 14.0 mph SE22.5 kmh SE 15.0 mph24.1 kmh 30.11 in1019.6 mb 0.00 in0.0 mm 0.00 in/hr0.0 mm/hr 0.00 in0.0 mm
06:15 PM 36.5°F2.5°C 29.0°F-1.7°C 74% 7.0 mph SE11.3 kmh SE 16.0 mph25.7 kmh 30.12 in1020.0 mb 0.00 in0.0 mm 0.00 in/hr0.0 mm/hr 0.00 in0.0 mm
06:20 PM 36.6°F2.6°C 29.4°F-1.4°C 75% 9.0 mph ESE14.5 kmh ESE 14.0 mph22.5 kmh 30.11 in1019.6 mb 0.00 in0.0 mm 0.00 in/hr0.0 mm/hr 0.00 in0.0 mm
06:25 PM 36.6°F2.6°C 29.7°F-1.3°C 76% 12.0 mph ESE19.3 kmh ESE 19.0 mph30.6 kmh 30.11 in1019.6 mb 0.00 in0.0 mm 0.00 in/hr0.0 mm/hr 0.00 in0.0 mm
06:30 PM 36.6°F2.6°C 29.7°F-1.3°C 76% 8.0 mph E12.9 kmh E 16.0 mph25.7 kmh 30.11 in1019.6 mb 0.00 in0.0 mm 0.00 in/hr0.0 mm/hr 0.00 in0.0 mm
06:35 PM 36.6°F2.6°C 29.7°F-1.3°C 76% 9.0 mph E14.5 kmh E 18.0 mph29.0 kmh 30.11 in1019.6 mb 0.00 in0.0 mm 0.00 in/hr0.0 mm/hr 0.00 in0.0 mm
06:40 PM 36.6°F2.6°C 29.7°F-1.3°C 76% 6.0 mph SE9.7 kmh SE 18.0 mph29.0 kmh 30.11 in1019.6 mb 0.00 in0.0 mm 0.00 in/hr0.0 mm/hr 0.00 in0.0 mm
06:45 PM 36.6°F2.6°C 30.0°F-1.1°C 77% 13.0 mph ESE20.9 kmh ESE 16.0 mph25.7 kmh 30.11 in1019.6 mb 0.00 in0.0 mm 0.00 in/hr0.0 mm/hr 0.00 in0.0 mm
06:50 PM 36.6°F2.6°C 30.0°F-1.1°C 77% 9.0 mph SE14.5 kmh SE 21.0 mph33.8 kmh 30.11 in1019.6 mb 0.00 in0.0 mm 0.00 in/hr0.0 mm/hr 0.00 in0.0 mm
06:55 PM 36.6°F2.6°C 30.0°F-1.1°C 77% 13.0 mph SE20.9 kmh SE 20.0 mph32.2 kmh 30.11 in1019.6 mb 0.00 in0.0 mm 0.00 in/hr0.0 mm/hr 0.00 in0.0 mm
07:00 PM 36.5°F2.5°C 29.9°F-1.2°C 77% 15.0 mph SE24.1 kmh SE 20.0 mph32.2 kmh 30.11 in1019.6 mb 0.00 in0.0 mm 0.00 in/hr0.0 mm/hr 0.00 in0.0 mm
07:05 PM 36.5°F2.5°C 30.3°F-0.9°C 78% 9.0 mph ESE14.5 kmh ESE 21.0 mph33.8 kmh 30.11 in1019.6 mb 0.00 in0.0 mm 0.00 in/hr0.0 mm/hr 0.00 in0.0 mm
07:10 PM 36.5°F2.5°C 29.9°F-1.2°C 77% 12.0 mph SE19.3 kmh SE 19.0 mph30.6 kmh 30.11 in1019.6 mb 0.00 in0.0 mm 0.00 in/hr0.0 mm/hr 0.00 in0.0 mm
07:15 PM 36.4°F2.4°C 30.2°F-1.0°C 78% 11.0 mph ESE17.7 kmh ESE 19.0 mph30.6 kmh 30.11 in1019.6 mb 0.00 in0.0 mm 0.00 in/hr0.0 mm/hr 0.00 in0.0 mm
07:20 PM 36.4°F2.4°C 30.2°F-1.0°C 78% 14.0 mph SE22.5 kmh SE 19.0 mph30.6 kmh 30.12 in1020.0 mb 0.00 in0.0 mm 0.00 in/hr0.0 mm/hr 0.00 in0.0 mm
07:25 PM 36.5°F2.5°C 30.3°F-0.9°C 78% 11.0 mph SE17.7 kmh SE 18.0 mph29.0 kmh 30.11 in1019.6 mb 0.00 in0.0 mm 0.00 in/hr0.0 mm/hr 0.00 in0.0 mm
07:30 PM 36.5°F2.5°C 30.3°F-0.9°C 78% 12.0 mph SE19.3 kmh SE 21.0 mph33.8 kmh 30.12 in1020.0 mb 0.00 in0.0 mm 0.00 in/hr0.0 mm/hr 0.00 in0.0 mm
07:35 PM 36.5°F2.5°C 30.3°F-0.9°C 78% 13.0 mph E20.9 kmh E 20.0 mph32.2 kmh 30.11 in1019.6 mb 0.00 in0.0 mm 0.00 in/hr0.0 mm/hr 0.00 in0.0 mm
07:40 PM 36.5°F2.5°C 30.3°F-0.9°C 78% 7.0 mph SE11.3 kmh SE 19.0 mph30.6 kmh 30.11 in1019.6 mb 0.00 in0.0 mm 0.00 in/hr0.0 mm/hr 0.00 in0.0 mm
07:45 PM 36.6°F2.6°C 30.4°F-0.9°C 78% 14.0 mph ESE22.5 kmh ESE 18.0 mph29.0 kmh 30.11 in1019.6 mb 0.00 in0.0 mm 0.00 in/hr0.0 mm/hr 0.00 in0.0 mm
07:50 PM 36.7°F2.6°C 30.4°F-0.9°C 78% 11.0 mph ENE17.7 kmh ENE 18.0 mph29.0 kmh 30.11 in1019.6 mb 0.00 in0.0 mm 0.00 in/hr0.0 mm/hr 0.00 in0.0 mm
07:55 PM 36.7°F2.6°C 30.4°F-0.9°C 78% 14.0 mph ESE22.5 kmh ESE 17.0 mph27.4 kmh 30.11 in1019.6 mb 0.00 in0.0 mm 0.00 in/hr0.0 mm/hr 0.00 in0.0 mm
08:00 PM 36.7°F2.6°C 30.4°F-0.9°C 78% 12.0 mph SE19.3 kmh SE 19.0 mph30.6 kmh 30.11 in1019.6 mb 0.00 in0.0 mm 0.00 in/hr0.0 mm/hr 0.00 in0.0 mm
08:05 PM 36.8°F2.7°C 30.5°F-0.8°C 78% 8.0 mph ESE12.9 kmh ESE 19.0 mph30.6 kmh 30.11 in1019.6 mb 0.00 in0.0 mm 0.00 in/hr0.0 mm/hr 0.00 in0.0 mm
08:10 PM 36.9°F2.7°C 30.6°F-0.8°C 78% 9.0 mph SE14.5 kmh SE 22.0 mph35.4 kmh 30.11 in1019.6 mb 0.00 in0.0 mm 0.00 in/hr0.0 mm/hr 0.00 in0.0 mm
08:15 PM 37.0°F2.8°C 30.7°F-0.7°C 78% 16.0 mph ESE25.7 kmh ESE 22.0 mph35.4 kmh 30.11 in1019.6 mb 0.00 in0.0 mm 0.00 in/hr0.0 mm/hr 0.00 in0.0 mm
08:20 PM 36.9°F2.7°C 30.6°F-0.8°C 78% 11.0 mph E17.7 kmh E 21.0 mph33.8 kmh 30.11 in1019.6 mb 0.00 in0.0 mm 0.00 in/hr0.0 mm/hr 0.00 in0.0 mm
08:25 PM 36.9°F2.7°C 31.0°F-0.6°C 79% 8.0 mph SE12.9 kmh SE 19.0 mph30.6 kmh 30.11 in1019.6 mb 0.00 in0.0 mm 0.00 in/hr0.0 mm/hr 0.00 in0.0 mm
08:30 PM 37.0°F2.8°C 30.7°F-0.7°C 78% 12.0 mph ESE19.3 kmh ESE 19.0 mph30.6 kmh 30.11 in1019.6 mb 0.00 in0.0 mm 0.00 in/hr0.0 mm/hr 0.00 in0.0 mm
08:35 PM 37.0°F2.8°C 30.7°F-0.7°C 78% 19.0 mph ESE30.6 kmh ESE 19.0 mph30.6 kmh 30.11 in1019.6 mb 0.00 in0.0 mm 0.00 in/hr0.0 mm/hr 0.00 in0.0 mm
08:40 PM 37.1°F2.8°C 31.2°F-0.4°C 79% 18.0 mph SE29.0 kmh SE 21.0 mph33.8 kmh 30.11 in1019.6 mb 0.00 in0.0 mm 0.00 in/hr0.0 mm/hr 0.00 in0.0 mm
08:45 PM 37.1°F2.8°C 30.8°F-0.7°C 78% 16.0 mph SE25.7 kmh SE 20.0 mph32.2 kmh 30.12 in1020.0 mb 0.00 in0.0 mm 0.00 in/hr0.0 mm/hr 0.00 in0.0 mm
08:50 PM 37.2°F2.9°C 31.2°F-0.4°C 79% 6.0 mph SE9.7 kmh SE 19.0 mph30.6 kmh 30.11 in1019.6 mb 0.00 in0.0 mm 0.00 in/hr0.0 mm/hr 0.00 in0.0 mm
08:55 PM 37.2°F2.9°C 31.2°F-0.4°C 79% 19.0 mph SE30.6 kmh SE 22.0 mph35.4 kmh 30.11 in1019.6 mb 0.00 in0.0 mm 0.00 in/hr0.0 mm/hr 0.00 in0.0 mm
09:00 PM 37.2°F2.9°C 31.2°F-0.4°C 79% 12.0 mph SE19.3 kmh SE 21.0 mph33.8 kmh 30.11 in1019.6 mb 0.00 in0.0 mm 0.00 in/hr0.0 mm/hr 0.00 in0.0 mm
09:05 PM 37.2°F2.9°C 31.2°F-0.4°C 79% 15.0 mph ESE24.1 kmh ESE 19.0 mph30.6 kmh 30.11 in1019.6 mb 0.00 in0.0 mm 0.00 in/hr0.0 mm/hr 0.00 in0.0 mm
09:10 PM 37.3°F2.9°C 31.3°F-0.4°C 79% 11.0 mph ENE17.7 kmh ENE 21.0 mph33.8 kmh 30.10 in1019.3 mb 0.00 in0.0 mm 0.00 in/hr0.0 mm/hr 0.00 in0.0 mm
09:15 PM 37.3°F2.9°C 31.3°F-0.4°C 79% 8.0 mph SE12.9 kmh SE 20.0 mph32.2 kmh 30.10 in1019.3 mb 0.00 in0.0 mm 0.00 in/hr0.0 mm/hr 0.00 in0.0 mm
09:20 PM 37.4°F3.0°C 31.4°F-0.3°C 79% 16.0 mph ESE25.7 kmh ESE 19.0 mph30.6 kmh 30.10 in1019.3 mb 0.00 in0.0 mm 0.00 in/hr0.0 mm/hr 0.00 in0.0 mm
09:25 PM 37.4°F3.0°C 31.4°F-0.3°C 79% 18.0 mph SE29.0 kmh SE 20.0 mph32.2 kmh 30.10 in1019.3 mb 0.00 in0.0 mm 0.00 in/hr0.0 mm/hr 0.00 in0.0 mm
09:30 PM 37.5°F3.1°C 31.5°F-0.3°C 79% 8.0 mph E12.9 kmh E 18.0 mph29.0 kmh 30.11 in1019.6 mb 0.00 in0.0 mm 0.00 in/hr0.0 mm/hr 0.00 in0.0 mm
09:35 PM 37.5°F3.1°C 31.5°F-0.3°C 79% 9.0 mph SE14.5 kmh SE 18.0 mph29.0 kmh 30.11 in1019.6 mb 0.00 in0.0 mm 0.00 in/hr0.0 mm/hr 0.00 in0.0 mm
09:40 PM 37.5°F3.1°C 31.5°F-0.3°C 79% 18.0 mph SE29.0 kmh SE 19.0 mph30.6 kmh 30.11 in1019.6 mb 0.00 in0.0 mm 0.00 in/hr0.0 mm/hr 0.00 in0.0 mm
09:45 PM 37.5°F3.1°C 31.5°F-0.3°C 79% 13.0 mph SE20.9 kmh SE 22.0 mph35.4 kmh 30.10 in1019.3 mb 0.00 in0.0 mm 0.00 in/hr0.0 mm/hr 0.00 in0.0 mm
09:50 PM 37.6°F3.1°C 31.3°F-0.4°C 78% 16.0 mph SE25.7 kmh SE 19.0 mph30.6 kmh 30.11 in1019.6 mb 0.00 in0.0 mm 0.00 in/hr0.0 mm/hr 0.00 in0.0 mm
09:55 PM 37.7°F3.2°C 31.4°F-0.3°C 78% 11.0 mph SE17.7 kmh SE 20.0 mph32.2 kmh 30.11 in1019.6 mb 0.00 in0.0 mm 0.00 in/hr0.0 mm/hr 0.00 in0.0 mm
10:00 PM 37.7°F3.2°C 31.7°F-0.2°C 79% 15.0 mph ESE24.1 kmh ESE 20.0 mph32.2 kmh 30.10 in1019.3 mb 0.00 in0.0 mm 0.00 in/hr0.0 mm/hr 0.00 in0.0 mm
10:05 PM 37.8°F3.2°C 31.8°F-0.1°C 79% 12.0 mph ESE19.3 kmh ESE 22.0 mph35.4 kmh 30.10 in1019.3 mb 0.00 in0.0 mm 0.00 in/hr0.0 mm/hr 0.00 in0.0 mm
10:10 PM 37.9°F3.3°C 31.9°F-0.1°C 79% 18.0 mph ESE29.0 kmh ESE 21.0 mph33.8 kmh 30.10 in1019.3 mb 0.00 in0.0 mm 0.00 in/hr0.0 mm/hr 0.00 in0.0 mm
10:15 PM 37.9°F3.3°C 31.9°F-0.1°C 79% 18.0 mph E29.0 kmh E 21.0 mph33.8 kmh 30.10 in1019.3 mb 0.00 in0.0 mm 0.00 in/hr0.0 mm/hr 0.00 in0.0 mm
10:20 PM 38.0°F3.3°C 32.0°F0.0°C 79% 13.0 mph E20.9 kmh E 19.0 mph30.6 kmh 30.10 in1019.3 mb 0.00 in0.0 mm 0.00 in/hr0.0 mm/hr 0.00 in0.0 mm
10:25 PM 37.9°F3.3°C 31.9°F-0.1°C 79% 14.0 mph SE22.5 kmh SE 22.0 mph35.4 kmh 30.10 in1019.3 mb 0.00 in0.0 mm 0.00 in/hr0.0 mm/hr 0.00 in0.0 mm
10:30 PM 38.0°F3.3°C 32.0°F0.0°C 79% 16.0 mph SE25.7 kmh SE 21.0 mph33.8 kmh 30.09 in1019.0 mb 0.00 in0.0 mm 0.00 in/hr0.0 mm/hr 0.00 in0.0 mm
10:35 PM 38.1°F3.4°C 32.1°F0.1°C 79% 13.0 mph ESE20.9 kmh ESE 21.0 mph33.8 kmh 30.09 in1019.0 mb 0.00 in0.0 mm 0.00 in/hr0.0 mm/hr 0.00 in0.0 mm
10:40 PM 38.1°F3.4°C 32.1°F0.1°C 79% 15.0 mph SE24.1 kmh SE 21.0 mph33.8 kmh 30.09 in1019.0 mb 0.00 in0.0 mm 0.00 in/hr0.0 mm/hr 0.00 in0.0 mm
10:45 PM 38.2°F3.4°C 32.2°F0.1°C 79% 15.0 mph E24.1 kmh E 21.0 mph33.8 kmh 30.09 in1019.0 mb 0.00 in0.0 mm 0.00 in/hr0.0 mm/hr 0.00 in0.0 mm
10:50 PM 38.2°F3.4°C 32.2°F0.1°C 79% 15.0 mph SSE24.1 kmh SSE 20.0 mph32.2 kmh 30.09 in1019.0 mb 0.00 in0.0 mm 0.00 in/hr0.0 mm/hr 0.00 in0.0 mm
10:55 PM 38.3°F3.5°C 32.3°F0.2°C 79% 19.0 mph SE30.6 kmh SE 21.0 mph33.8 kmh 30.08 in1018.6 mb 0.00 in0.0 mm 0.00 in/hr0.0 mm/hr 0.00 in0.0 mm
11:00 PM 38.3°F3.5°C 32.3°F0.2°C 79% 13.0 mph SE20.9 kmh SE 23.0 mph37.0 kmh 30.08 in1018.6 mb 0.00 in0.0 mm 0.00 in/hr0.0 mm/hr 0.00 in0.0 mm
11:05 PM 38.4°F3.6°C 32.7°F0.4°C 80% 19.0 mph E30.6 kmh E 22.0 mph35.4 kmh 30.08 in1018.6 mb 0.00 in0.0 mm 0.00 in/hr0.0 mm/hr 0.00 in0.0 mm
11:10 PM 38.4°F3.6°C 32.4°F0.2°C 79% 13.0 mph ESE20.9 kmh ESE 23.0 mph37.0 kmh 30.09 in1019.0 mb 0.00 in0.0 mm 0.00 in/hr0.0 mm/hr 0.00 in0.0 mm
11:15 PM 38.4°F3.6°C 32.4°F0.2°C 79% 18.0 mph SE29.0 kmh SE 21.0 mph33.8 kmh 30.09 in1019.0 mb 0.00 in0.0 mm 0.00 in/hr0.0 mm/hr 0.00 in0.0 mm
11:20 PM 38.5°F3.6°C 32.8°F0.4°C 80% 12.0 mph ESE19.3 kmh ESE 21.0 mph33.8 kmh 30.08 in1018.6 mb 0.00 in0.0 mm 0.00 in/hr0.0 mm/hr 0.00 in0.0 mm
11:25 PM 38.6°F3.7°C 32.9°F0.5°C 80% 17.0 mph SE27.4 kmh SE 22.0 mph35.4 kmh 30.08 in1018.6 mb 0.00 in0.0 mm 0.00 in/hr0.0 mm/hr 0.00 in0.0 mm
11:30 PM 38.6°F3.7°C 32.6°F0.3°C 79% 16.0 mph SE25.7 kmh SE 22.0 mph35.4 kmh 30.08 in1018.6 mb 0.00 in0.0 mm 0.00 in/hr0.0 mm/hr 0.00 in0.0 mm
11:35 PM 38.6°F3.7°C 32.6°F0.3°C 79% 16.0 mph SE25.7 kmh SE 20.0 mph32.2 kmh 30.08 in1018.6 mb 0.00 in0.0 mm 0.00 in/hr0.0 mm/hr 0.00 in0.0 mm
11:40 PM 38.8°F3.8°C 32.8°F0.4°C 79% 19.0 mph ESE30.6 kmh ESE 21.0 mph33.8 kmh 30.08 in1018.6 mb 0.00 in0.0 mm 0.00 in/hr0.0 mm/hr 0.00 in0.0 mm
11:45 PM 38.8°F3.8°C 32.8°F0.4°C 79% 11.0 mph SE17.7 kmh SE 20.0 mph32.2 kmh 30.08 in1018.6 mb 0.00 in0.0 mm 0.00 in/hr0.0 mm/hr 0.00 in0.0 mm
11:50 PM 38.8°F3.8°C 32.8°F0.4°C 79% 12.0 mph SE19.3 kmh SE 18.0 mph29.0 kmh 30.07 in1018.3 mb 0.00 in0.0 mm 0.00 in/hr0.0 mm/hr 0.00 in0.0 mm
11:55 PM 38.8°F3.8°C 32.5°F0.3°C 78% 14.0 mph SE22.5 kmh SE 20.0 mph32.2 kmh 30.07 in1018.3 mb 0.00 in0.0 mm 0.00 in/hr0.0 mm/hr 0.00 in0.0 mm